createdAt,value
2023-01-20T00:01:48.333Z,40.40
2023-01-20T00:04:19.418Z,40.25
2023-01-20T00:06:48.227Z,40.65
2023-01-20T00:09:17.759Z,40.18
2023-01-20T00:11:46.299Z,39.99
2023-01-20T00:14:14.384Z,40.15
2023-01-20T00:16:42.361Z,40.43
2023-01-20T00:19:13.470Z,40.69
2023-01-20T00:21:41.817Z,40.44
2023-01-20T00:24:10.015Z,40.49
2023-01-20T00:26:38.076Z,40.38
2023-01-20T00:29:05.929Z,40.53
2023-01-20T00:31:36.427Z,40.32
2023-01-20T00:34:05.689Z,40.40
2023-01-20T00:36:34.095Z,40.02
2023-01-20T00:39:07.186Z,40.11
2023-01-20T00:41:34.872Z,40.06
2023-01-20T00:44:02.587Z,40.17
2023-01-20T00:46:30.396Z,40.43
2023-01-20T00:48:59.439Z,40.47
2023-01-20T00:51:27.300Z,40.18
2023-01-20T00:53:55.545Z,40.38
2023-01-20T00:56:23.390Z,39.93
2023-01-20T00:58:55.318Z,40.07
2023-01-20T01:01:24.811Z,40.03
2023-01-20T01:03:54.600Z,39.89
2023-01-20T01:06:24.016Z,39.76
2023-01-20T01:08:51.885Z,40.06
2023-01-20T01:11:19.598Z,40.06
2023-01-20T01:13:47.572Z,40.03
2023-01-20T01:16:16.688Z,39.83
2023-01-20T01:18:45.870Z,39.63
2023-01-20T01:21:16.686Z,39.87
2023-01-20T01:23:44.630Z,39.94
2023-01-20T01:26:12.998Z,40.00
2023-01-20T01:28:41.323Z,39.90
2023-01-20T01:31:10.767Z,39.87
2023-01-20T01:33:38.781Z,39.80
2023-01-20T01:36:08.664Z,40.17
2023-01-20T01:38:36.500Z,40.01
2023-01-20T01:41:04.891Z,39.87
2023-01-20T01:43:37.833Z,39.73
2023-01-20T01:46:07.879Z,39.86
2023-01-20T01:48:45.621Z,40.17
2023-01-20T01:51:19.682Z,39.75
2023-01-20T01:53:54.058Z,39.72
2023-01-20T01:56:24.153Z,39.52
2023-01-20T01:58:56.132Z,39.71
2023-01-20T02:01:24.715Z,39.82
2023-01-20T02:04:05.335Z,39.76
2023-01-20T02:06:38.202Z,40.08
2023-01-20T02:09:07.353Z,40.06
2023-01-20T02:11:43.927Z,39.78
2023-01-20T02:14:12.286Z,39.59
2023-01-20T02:16:52.273Z,39.86
2023-01-20T02:19:51.270Z,39.68
2023-01-20T02:22:39.232Z,39.79
2023-01-20T02:25:18.799Z,39.75
2023-01-20T02:28:07.904Z,39.90
2023-01-20T02:31:02.009Z,39.80
2023-01-20T02:33:39.048Z,39.65
2023-01-20T02:36:20.193Z,39.48
2023-01-20T02:39:27.293Z,39.39
2023-01-20T02:42:07.831Z,39.25
2023-01-20T02:44:54.328Z,39.47
2023-01-20T02:47:42.151Z,39.55
2023-01-20T02:50:34.816Z,39.86
2023-01-20T02:53:04.879Z,39.48
2023-01-20T02:55:38.051Z,39.41
2023-01-20T02:58:11.797Z,39.24
2023-01-20T03:00:54.816Z,39.15
2023-01-20T03:03:30.214Z,39.11
2023-01-20T03:06:02.256Z,39.52
2023-01-20T03:08:33.058Z,39.54
2023-01-20T03:11:06.260Z,39.60
2023-01-20T03:13:55.830Z,39.41
2023-01-20T03:16:26.315Z,39.17
2023-01-20T03:18:54.870Z,39.01
2023-01-20T03:21:23.314Z,39.29
2023-01-20T03:23:53.690Z,39.37
2023-01-20T03:26:23.678Z,39.33
2023-01-20T03:28:51.772Z,39.65
2023-01-20T03:31:27.826Z,39.46
2023-01-20T03:33:59.181Z,39.51
2023-01-20T03:36:30.562Z,39.39
2023-01-20T03:38:59.786Z,39.35
2023-01-20T03:41:28.562Z,39.44
2023-01-20T03:44:11.732Z,39.65
2023-01-20T03:46:45.176Z,39.89
2023-01-20T03:49:26.430Z,40.06
2023-01-20T03:52:11.637Z,39.88
2023-01-20T03:55:00.694Z,39.83
2023-01-20T03:57:36.224Z,39.70
2023-01-20T04:00:09.250Z,39.58
2023-01-20T04:02:41.649Z,39.53
2023-01-20T04:05:11.217Z,39.45
2023-01-20T04:07:41.654Z,39.55
2023-01-20T04:10:15.196Z,39.41
2023-01-20T04:12:43.116Z,39.43
2023-01-20T04:15:11.549Z,39.27
2023-01-20T04:17:39.642Z,39.47
2023-01-20T04:20:13.665Z,39.08
2023-01-20T04:22:51.164Z,39.10
2023-01-20T04:25:31.963Z,39.28
2023-01-20T04:28:03.376Z,39.06
2023-01-20T04:30:31.365Z,39.12
2023-01-20T04:32:59.134Z,39.36
2023-01-20T04:35:28.387Z,39.03
2023-01-20T04:37:56.122Z,39.31
2023-01-20T04:40:24.009Z,39.73
2023-01-20T04:42:52.602Z,39.45
2023-01-20T04:45:20.801Z,39.51
2023-01-20T04:47:48.947Z,39.49
2023-01-20T04:50:17.271Z,39.54
2023-01-20T04:52:45.273Z,39.29
2023-01-20T04:55:13.886Z,39.06
2023-01-20T04:57:41.869Z,39.32
2023-01-20T05:00:11.497Z,39.17
2023-01-20T05:02:39.358Z,39.66
2023-01-20T05:05:07.780Z,39.70
2023-01-20T05:07:35.574Z,39.79
2023-01-20T05:10:03.847Z,40.06
2023-01-20T05:12:31.784Z,39.97
2023-01-20T05:14:59.516Z,39.58
2023-01-20T05:17:27.215Z,39.90
2023-01-20T05:19:55.027Z,39.93
2023-01-20T05:22:22.717Z,40.01
2023-01-20T05:24:50.436Z,39.87
2023-01-20T05:27:18.355Z,40.03
2023-01-20T05:29:46.671Z,40.32
2023-01-20T05:32:14.423Z,40.34
2023-01-20T05:34:42.334Z,39.99
2023-01-20T05:37:10.095Z,40.20
2023-01-20T05:39:37.886Z,40.28
2023-01-20T05:42:05.997Z,40.53
2023-01-20T05:44:33.863Z,41.18
2023-01-20T05:47:02.130Z,41.30
2023-01-20T05:49:31.858Z,41.40
2023-01-20T05:52:00.088Z,41.22
2023-01-20T05:54:27.927Z,41.36
2023-01-20T05:56:56.042Z,42.10
2023-01-20T05:59:24.624Z,43.20
2023-01-20T06:01:52.488Z,43.17
2023-01-20T06:04:20.816Z,43.18
2023-01-20T06:06:50.427Z,42.37
2023-01-20T06:09:31.804Z,42.27
2023-01-20T06:11:59.531Z,41.95
2023-01-20T06:14:30.564Z,41.72
2023-01-20T06:16:58.548Z,41.82
2023-01-20T06:19:26.663Z,41.50
2023-01-20T06:22:01.894Z,41.29
2023-01-20T06:24:30.386Z,41.17
2023-01-20T06:26:58.017Z,41.41
2023-01-20T06:29:25.943Z,41.50
2023-01-20T06:31:55.349Z,41.40
2023-01-20T06:34:24.237Z,41.61
2023-01-20T06:36:51.930Z,41.77
2023-01-20T06:39:19.752Z,41.89
2023-01-20T06:41:47.402Z,41.70
2023-01-20T06:44:15.753Z,41.57
2023-01-20T06:46:43.786Z,41.35
2023-01-20T06:49:11.523Z,41.38
2023-01-20T06:51:39.235Z,41.07
2023-01-20T06:54:07.281Z,40.90
2023-01-20T06:56:35.018Z,41.00
2023-01-20T06:59:03.486Z,41.13
2023-01-20T07:01:31.844Z,41.36
2023-01-20T07:03:59.668Z,41.34
2023-01-20T07:06:33.242Z,41.61
2023-01-20T07:09:02.265Z,41.72
2023-01-20T07:11:31.661Z,41.84
2023-01-20T07:14:01.920Z,41.81
2023-01-20T07:16:30.371Z,41.90
2023-01-20T07:18:58.681Z,41.96
2023-01-20T07:21:26.817Z,41.93
2023-01-20T07:23:54.955Z,41.84
2023-01-20T07:26:26.436Z,41.59
2023-01-20T07:28:54.471Z,41.72
2023-01-20T07:31:25.047Z,42.20
2023-01-20T07:33:55.483Z,42.13
2023-01-20T07:36:24.041Z,42.06
2023-01-20T07:38:52.874Z,42.22
2023-01-20T07:41:21.284Z,42.25
2023-01-20T07:43:51.338Z,41.84
2023-01-20T07:46:20.195Z,42.15
2023-01-20T07:48:48.092Z,42.09
2023-01-20T07:51:16.919Z,41.57
2023-01-20T07:53:51.037Z,41.81
2023-01-20T07:56:25.934Z,41.91
2023-01-20T07:58:56.915Z,41.89
2023-01-20T08:01:30.967Z,41.90
2023-01-20T08:04:02.768Z,42.04
2023-01-20T08:06:30.982Z,41.65
2023-01-20T08:09:02.644Z,42.29
2023-01-20T08:11:32.343Z,42.02
2023-01-20T08:14:00.155Z,42.53
2023-01-20T08:16:27.937Z,42.57
2023-01-20T08:18:56.045Z,42.84
2023-01-20T08:21:29.856Z,44.06
2023-01-20T08:24:04.772Z,42.98
2023-01-20T08:26:33.592Z,42.84
2023-01-20T08:29:06.512Z,43.54
2023-01-20T08:31:35.163Z,42.77
2023-01-20T08:34:03.871Z,42.53
2023-01-20T08:36:35.819Z,42.64
2023-01-20T08:39:06.557Z,42.88
2023-01-20T08:41:37.701Z,43.20
2023-01-20T08:44:07.996Z,42.39
2023-01-20T08:46:41.832Z,42.52
2023-01-20T08:49:16.026Z,43.07
2023-01-20T08:51:45.271Z,42.49
2023-01-20T08:54:14.947Z,42.48
2023-01-20T08:56:43.615Z,42.88
2023-01-20T08:59:11.346Z,42.07
2023-01-20T09:01:39.261Z,41.09
2023-01-20T09:04:07.776Z,41.89
2023-01-20T09:06:45.423Z,41.44
2023-01-20T09:09:15.595Z,41.38
2023-01-20T09:11:50.695Z,41.05
2023-01-20T09:14:23.742Z,40.78
2023-01-20T09:16:52.020Z,40.24
2023-01-20T09:19:20.099Z,40.16
2023-01-20T09:21:48.286Z,39.99
2023-01-20T09:24:16.086Z,39.68
2023-01-20T09:26:45.096Z,39.47
2023-01-20T09:29:15.470Z,39.95
2023-01-20T09:31:52.173Z,39.85
2023-01-20T09:34:24.822Z,41.54
2023-01-20T09:36:54.392Z,42.95
2023-01-20T09:39:41.220Z,42.56
2023-01-20T09:42:55.810Z,40.67
2023-01-20T09:45:51.316Z,39.74
2023-01-20T09:48:40.570Z,39.60
2023-01-20T09:51:37.007Z,39.21
2023-01-20T09:54:16.042Z,38.94
2023-01-20T09:56:48.161Z,39.20
2023-01-20T09:59:27.029Z,39.22
2023-01-20T10:01:59.336Z,38.92
2023-01-20T10:04:40.065Z,39.31
2023-01-20T10:07:27.750Z,39.21
2023-01-20T10:10:16.443Z,39.40
2023-01-20T10:12:50.305Z,39.20
2023-01-20T10:15:30.164Z,39.10
2023-01-20T10:18:10.390Z,39.39
2023-01-20T10:20:46.073Z,39.83
2023-01-20T10:23:23.070Z,39.47
2023-01-20T10:26:05.258Z,39.73
2023-01-20T10:28:59.551Z,40.02
2023-01-20T10:31:30.977Z,39.64
2023-01-20T10:34:28.200Z,39.75
2023-01-20T10:37:06.972Z,40.03
2023-01-20T10:39:45.535Z,40.67
2023-01-20T10:42:15.914Z,40.17
2023-01-20T10:44:47.535Z,40.15
2023-01-20T10:47:18.243Z,39.92
2023-01-20T10:50:34.451Z,41.17
2023-01-20T10:53:43.686Z,45.17
2023-01-20T10:56:26.492Z,43.53
2023-01-20T10:58:54.573Z,41.61
2023-01-20T11:01:22.587Z,42.19
2023-01-20T11:03:50.423Z,42.16
2023-01-20T11:06:28.352Z,42.47
2023-01-20T11:08:57.153Z,42.35
2023-01-20T11:11:25.938Z,42.96
2023-01-20T11:13:53.746Z,42.52
2023-01-20T11:16:31.450Z,42.27
2023-01-20T11:19:05.001Z,42.88
2023-01-20T11:21:36.931Z,42.36
2023-01-20T11:24:44.182Z,41.69
2023-01-20T11:27:17.001Z,41.92
2023-01-20T11:29:57.149Z,42.58
2023-01-20T11:32:41.859Z,43.58
2023-01-20T11:35:35.908Z,43.28
2023-01-20T11:38:31.611Z,43.24
2023-01-20T11:40:59.848Z,43.48
2023-01-20T11:43:32.277Z,43.72
2023-01-20T11:46:20.875Z,42.23
2023-01-20T11:48:50.235Z,41.88
2023-01-20T11:51:27.314Z,41.90
2023-01-20T11:54:17.209Z,42.49
2023-01-20T11:56:48.318Z,41.93
2023-01-20T11:59:31.583Z,41.81
2023-01-20T12:02:04.921Z,41.05
2023-01-20T12:05:20.677Z,40.96
2023-01-20T12:07:52.613Z,41.48
2023-01-20T12:10:31.541Z,41.21
2023-01-20T12:13:05.571Z,42.44
2023-01-20T12:15:37.980Z,41.90
2023-01-20T12:19:01.711Z,41.61
2023-01-20T12:21:35.837Z,41.72
2023-01-20T12:24:58.809Z,42.41
2023-01-20T12:27:28.659Z,41.87
2023-01-20T12:30:02.143Z,42.25
2023-01-20T12:32:32.918Z,41.98
2023-01-20T12:35:00.838Z,40.34
2023-01-20T12:37:43.084Z,39.96
2023-01-20T12:40:33.357Z,40.64
2023-01-20T12:43:40.078Z,40.05
2023-01-20T12:46:29.474Z,40.39
2023-01-20T12:49:19.941Z,40.61
2023-01-20T12:52:09.617Z,40.52
2023-01-20T12:54:54.121Z,40.77
2023-01-20T12:57:40.124Z,39.46
2023-01-20T13:00:25.545Z,38.30
2023-01-20T13:03:08.509Z,37.50
2023-01-20T13:06:07.408Z,36.64
2023-01-20T13:09:06.530Z,36.57
2023-01-20T13:12:02.205Z,36.89
2023-01-20T13:14:43.347Z,38.37
2023-01-20T13:17:33.414Z,37.54
2023-01-20T13:20:05.353Z,37.94
2023-01-20T13:22:34.872Z,37.21
2023-01-20T13:25:05.015Z,36.93
2023-01-20T13:27:38.002Z,36.88
2023-01-20T13:30:08.519Z,35.84
2023-01-20T13:32:45.518Z,35.92
2023-01-20T13:35:25.625Z,34.81
2023-01-20T13:38:00.276Z,34.34
2023-01-20T13:40:37.467Z,34.44
2023-01-20T13:43:11.631Z,35.01
2023-01-20T13:45:39.309Z,34.58
2023-01-20T13:48:07.246Z,34.63
2023-01-20T13:50:37.594Z,34.11
2023-01-20T13:53:11.449Z,34.01
2023-01-20T13:55:46.182Z,33.53
2023-01-20T13:58:33.950Z,33.38
2023-01-20T14:01:05.138Z,34.06
2023-01-20T14:03:40.105Z,33.15
2023-01-20T14:06:12.790Z,33.48
2023-01-20T14:08:49.533Z,33.90
2023-01-20T14:11:22.038Z,34.06
2023-01-20T14:14:05.829Z,33.23
2023-01-20T14:16:40.373Z,32.87
2023-01-20T14:19:34.383Z,33.18
2023-01-20T14:22:17.588Z,33.77
2023-01-20T14:24:48.496Z,33.48
2023-01-20T14:27:24.771Z,33.16
2023-01-20T14:29:54.959Z,32.83
2023-01-20T14:32:30.880Z,32.83
2023-01-20T14:34:59.551Z,34.68
2023-01-20T14:37:27.330Z,33.99
2023-01-20T14:39:59.200Z,34.41
2023-01-20T14:42:29.859Z,34.82
2023-01-20T14:44:58.116Z,34.34
2023-01-20T14:47:27.263Z,33.45
2023-01-20T14:49:56.056Z,33.79
2023-01-20T14:52:31.194Z,33.54
2023-01-20T14:54:59.157Z,33.92
2023-01-20T14:57:27.501Z,34.59
2023-01-20T15:00:23.641Z,32.86
2023-01-20T15:03:11.993Z,33.49
2023-01-20T15:06:00.712Z,33.24
2023-01-20T15:08:35.556Z,32.13
2023-01-20T15:11:18.493Z,31.77
2023-01-20T15:13:53.954Z,31.13
2023-01-20T15:16:27.874Z,32.28
2023-01-20T15:19:16.786Z,30.04
2023-01-20T15:21:57.063Z,28.98
2023-01-20T15:24:30.863Z,29.94
2023-01-20T15:27:01.471Z,31.09
2023-01-20T15:29:34.772Z,29.75
2023-01-20T15:32:14.956Z,30.25
2023-01-20T15:34:42.933Z,29.76
2023-01-20T15:37:18.937Z,28.10
2023-01-20T15:39:48.354Z,29.35
2023-01-20T15:42:18.580Z,29.84
2023-01-20T15:44:46.600Z,27.85
2023-01-20T15:47:21.129Z,28.23
2023-01-20T15:49:48.939Z,28.93
2023-01-20T15:52:17.175Z,28.38
2023-01-20T15:57:30.123Z,28.37
2023-01-20T15:59:57.973Z,29.23
2023-01-20T16:02:26.808Z,28.28
2023-01-20T16:04:55.716Z,28.91
2023-01-20T16:07:23.509Z,28.21
2023-01-20T16:10:52.183Z,33.43
2023-01-20T16:13:20.008Z,30.02
2023-01-20T16:15:47.736Z,30.74
2023-01-20T16:18:17.825Z,30.32
2023-01-20T16:20:47.173Z,29.67
2023-01-20T16:23:15.038Z,29.71
2023-01-20T16:25:44.783Z,29.91
2023-01-20T16:28:18.782Z,29.58
2023-01-20T16:30:46.523Z,28.77
2023-01-20T16:33:23.460Z,29.27
2023-01-20T16:35:53.136Z,28.94
2023-01-20T16:38:24.531Z,28.92
2023-01-20T16:40:57.629Z,29.61
2023-01-20T16:43:25.583Z,30.23
2023-01-20T16:45:58.711Z,29.32
2023-01-20T16:48:26.660Z,29.69
2023-01-20T16:50:54.739Z,29.70
2023-01-20T16:53:22.649Z,28.52
2023-01-20T16:55:50.408Z,29.87
2023-01-20T16:58:18.159Z,32.17
2023-01-20T17:00:45.881Z,31.33
2023-01-20T17:03:13.776Z,31.83
2023-01-20T17:05:41.653Z,31.63
2023-01-20T17:08:10.279Z,32.06
2023-01-20T17:10:38.398Z,34.07
2023-01-20T17:13:08.332Z,34.47
2023-01-20T17:15:37.547Z,34.62
2023-01-20T17:18:06.775Z,34.47
2023-01-20T17:20:35.414Z,35.05
2023-01-20T17:23:04.710Z,35.23
2023-01-20T17:25:32.625Z,35.63
2023-01-20T17:28:00.523Z,35.30
2023-01-20T17:30:29.100Z,36.02
2023-01-20T17:33:00.311Z,38.74
2023-01-20T17:35:28.353Z,39.72
2023-01-20T17:37:57.794Z,37.90
2023-01-20T17:40:25.652Z,37.85
2023-01-20T17:42:54.885Z,37.84
2023-01-20T17:45:24.881Z,37.86
2023-01-20T17:47:52.998Z,37.66
2023-01-20T17:50:21.119Z,37.98
2023-01-20T17:52:49.403Z,38.28
2023-01-20T17:55:17.571Z,38.55
2023-01-20T17:57:45.675Z,37.95
2023-01-20T18:00:14.430Z,38.03
2023-01-20T18:02:42.529Z,38.28
2023-01-20T18:05:11.453Z,38.71
2023-01-20T18:07:39.745Z,38.53
2023-01-20T18:10:07.840Z,38.14
2023-01-20T18:12:35.492Z,38.95
2023-01-20T18:15:04.515Z,38.55
2023-01-20T18:17:34.539Z,38.50
2023-01-20T18:20:03.516Z,38.33
2023-01-20T18:22:31.193Z,39.34
2023-01-20T18:24:58.939Z,39.55
2023-01-20T18:27:26.785Z,38.64
2023-01-20T18:29:54.569Z,38.58
2023-01-20T18:32:23.491Z,38.45
2023-01-20T18:34:51.335Z,40.03
2023-01-20T18:37:19.109Z,41.08
2023-01-20T18:39:47.491Z,38.31
2023-01-20T18:42:15.925Z,38.62
2023-01-20T18:44:43.858Z,39.07
2023-01-20T18:47:11.609Z,38.19
2023-01-20T18:49:39.352Z,37.71
2023-01-20T18:52:07.106Z,38.24
2023-01-20T18:54:37.333Z,38.18
2023-01-20T18:57:06.765Z,37.79
2023-01-20T18:59:36.963Z,37.47
2023-01-20T19:02:04.854Z,39.27
2023-01-20T19:04:33.838Z,39.58
2023-01-20T19:07:01.588Z,38.97
2023-01-20T19:09:29.380Z,38.99
2023-01-20T19:11:59.878Z,38.89
2023-01-20T19:14:28.549Z,38.42
2023-01-20T19:16:56.379Z,38.84
2023-01-20T19:19:24.035Z,38.48
2023-01-20T19:21:52.730Z,39.00
2023-01-20T19:24:21.984Z,39.03
2023-01-20T19:26:50.270Z,38.57
2023-01-20T19:29:19.178Z,37.85
2023-01-20T19:31:47.098Z,38.35
2023-01-20T19:34:17.025Z,38.11
2023-01-20T19:36:44.916Z,38.59
2023-01-20T19:39:13.313Z,37.28
2023-01-20T19:41:41.123Z,37.12
2023-01-20T19:44:11.197Z,37.18
2023-01-20T19:46:39.116Z,36.75
2023-01-20T19:49:07.574Z,36.39
2023-01-20T19:51:36.986Z,35.97
2023-01-20T19:54:05.971Z,36.54
2023-01-20T19:56:35.406Z,36.16
2023-01-20T19:59:06.238Z,35.81
2023-01-20T20:01:36.682Z,35.59
2023-01-20T20:04:10.769Z,35.50
2023-01-20T20:06:47.749Z,35.94
2023-01-20T20:09:18.766Z,35.59
2023-01-20T20:11:47.357Z,35.88
2023-01-20T20:14:17.848Z,35.35
2023-01-20T20:16:46.055Z,35.07
2023-01-20T20:19:16.739Z,35.11
2023-01-20T20:21:45.792Z,34.99
2023-01-20T20:24:16.242Z,34.88
2023-01-20T20:26:46.241Z,35.45
2023-01-20T20:29:16.260Z,34.17
2023-01-20T20:31:44.336Z,33.49
2023-01-20T20:34:15.686Z,34.55
2023-01-20T20:36:44.499Z,33.96
2023-01-20T20:39:16.466Z,33.76
2023-01-20T20:41:45.182Z,34.00
2023-01-20T20:44:13.489Z,34.35
2023-01-20T20:46:41.708Z,33.55
2023-01-20T20:49:14.970Z,32.95
2023-01-20T20:51:43.279Z,33.74
2023-01-20T20:54:15.460Z,34.01
2023-01-20T20:56:45.462Z,33.91
2023-01-20T20:59:13.680Z,33.29
2023-01-20T21:01:41.813Z,32.66
2023-01-20T21:04:11.861Z,32.54
2023-01-20T21:06:39.969Z,32.62
2023-01-20T21:09:08.272Z,32.49
2023-01-20T21:11:38.267Z,32.74
2023-01-20T21:14:07.461Z,33.65
2023-01-20T21:16:35.394Z,34.04
2023-01-20T21:19:04.483Z,32.63
2023-01-20T21:21:32.507Z,32.22
2023-01-20T21:24:01.955Z,32.75
2023-01-20T21:26:30.809Z,32.51
2023-01-20T21:29:02.196Z,31.46
2023-01-20T21:31:32.184Z,31.76
2023-01-20T21:34:01.118Z,32.28
2023-01-20T21:36:30.097Z,32.36
2023-01-20T21:39:01.310Z,31.73
2023-01-20T21:41:29.289Z,31.73
2023-01-20T21:44:15.652Z,31.10
2023-01-20T21:46:43.856Z,30.77
2023-01-20T21:49:30.152Z,30.44
2023-01-20T21:52:16.611Z,30.35
2023-01-20T21:54:45.521Z,30.98
2023-01-20T21:57:14.840Z,30.61
2023-01-20T21:59:43.371Z,30.54
2023-01-20T22:02:13.570Z,30.32
2023-01-20T22:04:41.978Z,29.67
2023-01-20T22:07:10.691Z,29.59
2023-01-20T22:09:39.735Z,29.26
2023-01-20T22:12:08.151Z,29.66
2023-01-20T22:14:36.587Z,29.87
2023-01-20T22:17:08.766Z,30.05
2023-01-20T22:19:37.284Z,29.76
2023-01-20T22:22:05.267Z,29.46
2023-01-20T22:24:34.168Z,29.59
2023-01-20T22:27:02.140Z,29.12
2023-01-20T22:29:30.183Z,29.36
2023-01-20T22:31:59.738Z,28.73
2023-01-20T22:34:27.547Z,28.88
2023-01-20T22:36:57.461Z,28.82
2023-01-20T22:39:27.973Z,28.73
2023-01-20T22:41:55.862Z,28.97
2023-01-20T22:44:23.730Z,28.94
2023-01-20T22:46:51.672Z,29.04
2023-01-20T22:49:21.809Z,28.83
2023-01-20T22:51:49.746Z,28.85
2023-01-20T22:54:17.451Z,29.30
2023-01-20T22:56:45.091Z,29.34
2023-01-20T22:59:13.941Z,29.87
2023-01-20T23:01:41.763Z,29.43
2023-01-20T23:04:11.223Z,29.25
2023-01-20T23:06:39.471Z,29.09
2023-01-20T23:09:11.884Z,29.15
2023-01-20T23:11:40.299Z,29.19
2023-01-20T23:14:13.088Z,29.11
2023-01-20T23:16:41.719Z,28.64
2023-01-20T23:19:10.663Z,28.72
2023-01-20T23:21:38.554Z,28.75
2023-01-20T23:24:08.575Z,29.11
2023-01-20T23:26:36.340Z,28.99
2023-01-20T23:29:04.175Z,29.00
2023-01-20T23:31:33.949Z,28.77
2023-01-20T23:34:01.797Z,28.88
2023-01-20T23:36:29.519Z,29.14
2023-01-20T23:38:57.843Z,29.20
2023-01-20T23:41:26.811Z,28.93
2023-01-20T23:43:54.720Z,29.08
2023-01-20T23:46:22.612Z,29.31
2023-01-20T23:48:50.794Z,29.19
2023-01-20T23:51:18.537Z,29.35
2023-01-20T23:53:46.423Z,29.18
2023-01-20T23:56:17.230Z,29.40
2023-01-20T23:58:46.084Z,29.62
